Decoded Metar for LECH (CALAMOCHA in SPAIN) (IATA:N/A) | Meteo·Mobile Aviation Weather
aviador You're here:

LECH Decoded Metar

CALAMOCHA in SPAIN
Report Time2019-07-22 16:00:00
UTC Time2019-07-22 16:34:46
Flight Rules vfr VFR
Wind180° at 06 kt
Visibility9999 m
Phenomena:N/A
Clouds:N/A
Expected CloudBase > 8,400 ft AGL from Temp-Dew spread
CeilingNone
Temp31°C (ISA +22)
Dew Point10°C (27% RH)
Heat Index29.5°C
AAT28.8°C
QNH1022 hPa
Density Alt5,302 ft
Elevation2,949 ft
Report Wrong Elevation
Raw Report
METAR LECH 221600Z AUTO 18006KT 150V230 CAVOK 31/10 Q1022=

Extra information for LECH:More info

Metar Taf Metar & Taf Last 4 Metars F.Rules Stats Wind Profile Meteogram Temp Stats Airport Information Weather charts Add Link Nearby VenuesMetar ALERT Operation Metar Decoded Social comments